sensor_id;sensor_type;location;lat;lon;timestamp;P1;durP1;ratioP1;P2;durP2;ratioP2
60076;SDS011;45950;45.208;20.374;2023-03-23T00:01:30;66.15;;;43.17;;
60076;SDS011;45950;45.208;20.374;2023-03-23T00:04:02;65.93;;;42.70;;
60076;SDS011;45950;45.208;20.374;2023-03-23T00:06:28;62.38;;;40.47;;
60076;SDS011;45950;45.208;20.374;2023-03-23T00:08:58;60.00;;;37.90;;
60076;SDS011;45950;45.208;20.374;2023-03-23T00:11:27;58.67;;;38.30;;
60076;SDS011;45950;45.208;20.374;2023-03-23T00:13:55;57.63;;;36.42;;
60076;SDS011;45950;45.208;20.374;2023-03-23T00:16:25;56.88;;;34.80;;
60076;SDS011;45950;45.208;20.374;2023-03-23T00:18:55;66.38;;;43.35;;
60076;SDS011;45950;45.208;20.374;2023-03-23T00:21:23;56.13;;;39.20;;
60076;SDS011;45950;45.208;20.374;2023-03-23T00:23:58;60.08;;;40.60;;
60076;SDS011;45950;45.208;20.374;2023-03-23T00:26:24;66.68;;;44.80;;
60076;SDS011;45950;45.208;20.374;2023-03-23T00:28:54;63.40;;;40.85;;
60076;SDS011;45950;45.208;20.374;2023-03-23T00:31:20;65.55;;;41.38;;
60076;SDS011;45950;45.208;20.374;2023-03-23T00:33:48;62.10;;;40.08;;
60076;SDS011;45950;45.208;20.374;2023-03-23T00:36:15;64.53;;;41.90;;
60076;SDS011;45950;45.208;20.374;2023-03-23T00:38:42;66.65;;;41.78;;
60076;SDS011;45950;45.208;20.374;2023-03-23T00:41:09;72.43;;;44.45;;
60076;SDS011;45950;45.208;20.374;2023-03-23T00:43:36;67.47;;;43.42;;
60076;SDS011;45950;45.208;20.374;2023-03-23T00:46:04;74.45;;;45.90;;
60076;SDS011;45950;45.208;20.374;2023-03-23T00:48:34;79.95;;;47.22;;
60076;SDS011;45950;45.208;20.374;2023-03-23T00:51:02;91.60;;;53.00;;
60076;SDS011;45950;45.208;20.374;2023-03-23T00:53:31;83.35;;;52.35;;
60076;SDS011;45950;45.208;20.374;2023-03-23T00:55:58;91.15;;;53.35;;
60076;SDS011;45950;45.208;20.374;2023-03-23T00:58:35;93.72;;;57.65;;
60076;SDS011;45950;45.208;20.374;2023-03-23T01:01:02;103.03;;;61.33;;
60076;SDS011;45950;45.208;20.374;2023-03-23T01:03:28;117.93;;;65.70;;
60076;SDS011;45950;45.208;20.374;2023-03-23T01:05:55;107.63;;;60.08;;
60076;SDS011;45950;45.208;20.374;2023-03-23T01:08:23;96.80;;;57.90;;
60076;SDS011;45950;45.208;20.374;2023-03-23T01:10:50;98.07;;;56.15;;
60076;SDS011;45950;45.208;20.374;2023-03-23T01:13:19;95.97;;;55.45;;
60076;SDS011;45950;45.208;20.374;2023-03-23T01:15:57;86.90;;;52.28;;
60076;SDS011;45950;45.208;20.374;2023-03-23T01:18:50;74.15;;;43.30;;
60076;SDS011;45950;45.208;20.374;2023-03-23T01:21:18;71.05;;;41.83;;
60076;SDS011;45950;45.208;20.374;2023-03-23T01:23:46;62.65;;;38.40;;
60076;SDS011;45950;45.208;20.374;2023-03-23T01:26:14;57.95;;;35.67;;
60076;SDS011;45950;45.208;20.374;2023-03-23T01:28:41;61.95;;;35.35;;
60076;SDS011;45950;45.208;20.374;2023-03-23T01:31:13;56.38;;;34.88;;
60076;SDS011;45950;45.208;20.374;2023-03-23T01:33:56;54.97;;;34.05;;
60076;SDS011;45950;45.208;20.374;2023-03-23T01:36:23;55.03;;;33.00;;
60076;SDS011;45950;45.208;20.374;2023-03-23T01:38:53;51.92;;;32.13;;
60076;SDS011;45950;45.208;20.374;2023-03-23T01:44:06;51.63;;;30.40;;
60076;SDS011;45950;45.208;20.374;2023-03-23T01:46:33;48.45;;;31.42;;
60076;SDS011;45950;45.208;20.374;2023-03-23T01:49:01;51.60;;;31.10;;
60076;SDS011;45950;45.208;20.374;2023-03-23T01:51:31;48.33;;;30.95;;
60076;SDS011;45950;45.208;20.374;2023-03-23T01:54:01;52.92;;;32.03;;
60076;SDS011;45950;45.208;20.374;2023-03-23T01:56:31;47.65;;;30.83;;
60076;SDS011;45950;45.208;20.374;2023-03-23T01:58:58;49.83;;;31.10;;
60076;SDS011;45950;45.208;20.374;2023-03-23T02:01:25;52.22;;;31.80;;
60076;SDS011;45950;45.208;20.374;2023-03-23T02:09:32;43.58;;;28.60;;
60076;SDS011;45950;45.208;20.374;2023-03-23T02:12:01;47.22;;;29.60;;
60076;SDS011;45950;45.208;20.374;2023-03-23T02:14:43;39.65;;;26.15;;
60076;SDS011;45950;45.208;20.374;2023-03-23T02:17:14;39.40;;;26.03;;
60076;SDS011;45950;45.208;20.374;2023-03-23T02:20:07;42.17;;;25.52;;
60076;SDS011;45950;45.208;20.374;2023-03-23T02:56:42;38.38;;;24.40;;
60076;SDS011;45950;45.208;20.374;2023-03-23T02:59:09;37.70;;;24.27;;
60076;SDS011;45950;45.208;20.374;2023-03-23T03:01:51;35.83;;;23.15;;
60076;SDS011;45950;45.208;20.374;2023-03-23T03:04:19;33.15;;;23.70;;
60076;SDS011;45950;45.208;20.374;2023-03-23T03:06:49;34.80;;;23.67;;
60076;SDS011;45950;45.208;20.374;2023-03-23T03:09:19;34.17;;;24.40;;
60076;SDS011;45950;45.208;20.374;2023-03-23T03:11:52;34.08;;;22.30;;
60076;SDS011;45950;45.208;20.374;2023-03-23T03:14:23;35.95;;;23.80;;
60076;SDS011;45950;45.208;20.374;2023-03-23T03:16:52;36.05;;;23.80;;
60076;SDS011;45950;45.208;20.374;2023-03-23T03:19:23;36.42;;;24.25;;
60076;SDS011;45950;45.208;20.374;2023-03-23T03:21:52;35.47;;;24.60;;
60076;SDS011;45950;45.208;20.374;2023-03-23T03:24:25;36.60;;;24.88;;
60076;SDS011;45950;45.208;20.374;2023-03-23T03:26:54;34.83;;;24.70;;
60076;SDS011;45950;45.208;20.374;2023-03-23T03:29:25;41.22;;;26.67;;
60076;SDS011;45950;45.208;20.374;2023-03-23T03:31:58;36.88;;;25.10;;
60076;SDS011;45950;45.208;20.374;2023-03-23T03:34:26;39.47;;;24.53;;
60076;SDS011;45950;45.208;20.374;2023-03-23T03:36:53;40.22;;;26.40;;
60076;SDS011;45950;45.208;20.374;2023-03-23T03:39:35;38.08;;;25.80;;
60076;SDS011;45950;45.208;20.374;2023-03-23T03:47:45;41.72;;;26.75;;
60076;SDS011;45950;45.208;20.374;2023-03-23T03:50:18;39.53;;;26.80;;
60076;SDS011;45950;45.208;20.374;2023-03-23T03:59:12;43.53;;;28.23;;
60076;SDS011;45950;45.208;20.374;2023-03-23T04:04:27;46.70;;;28.23;;
60076;SDS011;45950;45.208;20.374;2023-03-23T04:09:30;40.35;;;27.75;;
60076;SDS011;45950;45.208;20.374;2023-03-23T04:12:00;43.50;;;29.10;;
60076;SDS011;45950;45.208;20.374;2023-03-23T04:25:24;45.42;;;31.08;;
60076;SDS011;45950;45.208;20.374;2023-03-23T04:27:52;44.75;;;28.95;;
60076;SDS011;45950;45.208;20.374;2023-03-23T04:30:19;45.50;;;29.95;;
60076;SDS011;45950;45.208;20.374;2023-03-23T04:32:51;49.58;;;31.48;;
60076;SDS011;45950;45.208;20.374;2023-03-23T04:35:21;50.75;;;30.45;;
60076;SDS011;45950;45.208;20.374;2023-03-23T04:37:52;47.17;;;31.35;;
60076;SDS011;45950;45.208;20.374;2023-03-23T04:40:19;48.38;;;32.65;;
60076;SDS011;45950;45.208;20.374;2023-03-23T04:45:35;53.80;;;36.42;;
60076;SDS011;45950;45.208;20.374;2023-03-23T04:48:06;49.70;;;32.10;;
60076;SDS011;45950;45.208;20.374;2023-03-23T04:50:55;48.47;;;32.55;;
60076;SDS011;45950;45.208;20.374;2023-03-23T04:53:37;49.05;;;33.63;;
60076;SDS011;45950;45.208;20.374;2023-03-23T04:56:18;49.10;;;34.28;;
60076;SDS011;45950;45.208;20.374;2023-03-23T04:58:45;53.78;;;34.88;;
60076;SDS011;45950;45.208;20.374;2023-03-23T05:01:13;45.78;;;30.95;;
60076;SDS011;45950;45.208;20.374;2023-03-23T05:03:56;48.03;;;32.15;;
60076;SDS011;45950;45.208;20.374;2023-03-23T05:06:22;41.95;;;30.55;;
60076;SDS011;45950;45.208;20.374;2023-03-23T05:08:49;45.38;;;30.90;;
60076;SDS011;45950;45.208;20.374;2023-03-23T05:11:16;51.40;;;32.75;;
60076;SDS011;45950;45.208;20.374;2023-03-23T05:13:42;43.65;;;30.13;;
60076;SDS011;45950;45.208;20.374;2023-03-23T05:18:51;46.10;;;31.10;;
60076;SDS011;45950;45.208;20.374;2023-03-23T05:21:32;43.08;;;29.83;;
60076;SDS011;45950;45.208;20.374;2023-03-23T05:24:02;55.70;;;35.88;;
60076;SDS011;45950;45.208;20.374;2023-03-23T05:26:48;57.83;;;35.83;;
60076;SDS011;45950;45.208;20.374;2023-03-23T05:43:27;45.72;;;30.98;;
60076;SDS011;45950;45.208;20.374;2023-03-23T05:48:28;62.00;;;38.97;;
60076;SDS011;45950;45.208;20.374;2023-03-23T05:50:58;51.47;;;36.38;;
60076;SDS011;45950;45.208;20.374;2023-03-23T05:56:18;49.38;;;35.95;;
60076;SDS011;45950;45.208;20.374;2023-03-23T05:59:12;45.70;;;31.70;;
60076;SDS011;45950;45.208;20.374;2023-03-23T06:01:39;47.13;;;32.80;;
60076;SDS011;45950;45.208;20.374;2023-03-23T06:04:07;48.95;;;32.60;;
60076;SDS011;45950;45.208;20.374;2023-03-23T06:06:34;46.25;;;32.47;;
60076;SDS011;45950;45.208;20.374;2023-03-23T06:11:55;54.97;;;36.67;;
60076;SDS011;45950;45.208;20.374;2023-03-23T06:17:25;50.40;;;36.72;;
60076;SDS011;45950;45.208;20.374;2023-03-23T06:19:53;47.22;;;34.58;;
60076;SDS011;45950;45.208;20.374;2023-03-23T06:22:30;47.75;;;32.75;;
60076;SDS011;45950;45.208;20.374;2023-03-23T06:25:23;48.63;;;34.97;;
60076;SDS011;45950;45.208;20.374;2023-03-23T06:27:50;42.63;;;30.73;;
60076;SDS011;45950;45.208;20.374;2023-03-23T06:30:18;44.17;;;30.08;;
60076;SDS011;45950;45.208;20.374;2023-03-23T06:32:47;43.08;;;28.88;;
60076;SDS011;45950;45.208;20.374;2023-03-23T06:35:13;39.38;;;28.38;;
60076;SDS011;45950;45.208;20.374;2023-03-23T06:37:40;36.42;;;27.70;;
60076;SDS011;45950;45.208;20.374;2023-03-23T06:40:07;38.42;;;27.85;;
60076;SDS011;45950;45.208;20.374;2023-03-23T06:42:35;33.13;;;24.25;;
60076;SDS011;45950;45.208;20.374;2023-03-23T06:45:02;42.92;;;26.88;;
60076;SDS011;45950;45.208;20.374;2023-03-23T06:47:28;38.30;;;27.05;;
60076;SDS011;45950;45.208;20.374;2023-03-23T06:49:57;35.30;;;24.83;;
60076;SDS011;45950;45.208;20.374;2023-03-23T06:52:23;33.47;;;23.55;;
60076;SDS011;45950;45.208;20.374;2023-03-23T06:54:50;36.92;;;27.63;;
60076;SDS011;45950;45.208;20.374;2023-03-23T06:57:17;42.80;;;29.38;;
60076;SDS011;45950;45.208;20.374;2023-03-23T06:59:44;33.63;;;24.73;;
60076;SDS011;45950;45.208;20.374;2023-03-23T07:02:11;36.17;;;25.27;;
60076;SDS011;45950;45.208;20.374;2023-03-23T07:04:39;35.67;;;25.13;;
60076;SDS011;45950;45.208;20.374;2023-03-23T07:07:07;29.17;;;23.58;;
60076;SDS011;45950;45.208;20.374;2023-03-23T07:09:34;34.97;;;23.45;;
60076;SDS011;45950;45.208;20.374;2023-03-23T07:12:01;29.73;;;21.83;;
60076;SDS011;45950;45.208;20.374;2023-03-23T07:14:27;34.92;;;23.20;;
60076;SDS011;45950;45.208;20.374;2023-03-23T07:16:54;31.08;;;22.17;;
60076;SDS011;45950;45.208;20.374;2023-03-23T07:19:21;31.85;;;21.75;;
60076;SDS011;45950;45.208;20.374;2023-03-23T07:21:47;26.23;;;19.42;;
60076;SDS011;45950;45.208;20.374;2023-03-23T07:24:15;27.92;;;21.02;;
60076;SDS011;45950;45.208;20.374;2023-03-23T07:26:43;29.65;;;22.70;;
60076;SDS011;45950;45.208;20.374;2023-03-23T07:29:10;30.73;;;21.50;;
60076;SDS011;45950;45.208;20.374;2023-03-23T07:31:37;27.00;;;20.27;;
60076;SDS011;45950;45.208;20.374;2023-03-23T07:34:04;27.35;;;19.85;;
60076;SDS011;45950;45.208;20.374;2023-03-23T07:36:31;29.00;;;21.55;;
60076;SDS011;45950;45.208;20.374;2023-03-23T07:39:00;29.65;;;21.88;;
60076;SDS011;45950;45.208;20.374;2023-03-23T07:41:28;29.67;;;22.48;;
60076;SDS011;45950;45.208;20.374;2023-03-23T07:43:54;28.35;;;20.73;;
60076;SDS011;45950;45.208;20.374;2023-03-23T07:46:21;29.42;;;22.30;;
60076;SDS011;45950;45.208;20.374;2023-03-23T07:48:47;26.42;;;20.08;;
60076;SDS011;45950;45.208;20.374;2023-03-23T07:51:14;25.42;;;19.52;;
60076;SDS011;45950;45.208;20.374;2023-03-23T07:53:41;29.33;;;22.35;;
60076;SDS011;45950;45.208;20.374;2023-03-23T07:56:09;26.50;;;19.17;;
60076;SDS011;45950;45.208;20.374;2023-03-23T07:58:37;23.20;;;18.25;;
60076;SDS011;45950;45.208;20.374;2023-03-23T08:04:07;24.17;;;17.63;;
60076;SDS011;45950;45.208;20.374;2023-03-23T08:06:34;22.30;;;17.58;;
60076;SDS011;45950;45.208;20.374;2023-03-23T08:09:00;26.55;;;17.83;;
60076;SDS011;45950;45.208;20.374;2023-03-23T08:11:28;23.10;;;18.08;;
60076;SDS011;45950;45.208;20.374;2023-03-23T08:13:56;23.90;;;18.42;;
60076;SDS011;45950;45.208;20.374;2023-03-23T08:16:22;22.38;;;17.50;;
60076;SDS011;45950;45.208;20.374;2023-03-23T08:18:49;21.70;;;17.33;;
60076;SDS011;45950;45.208;20.374;2023-03-23T08:21:16;22.27;;;18.15;;
60076;SDS011;45950;45.208;20.374;2023-03-23T08:23:46;24.95;;;17.80;;
60076;SDS011;45950;45.208;20.374;2023-03-23T08:26:13;21.58;;;17.45;;
60076;SDS011;45950;45.208;20.374;2023-03-23T08:28:42;21.90;;;16.40;;
60076;SDS011;45950;45.208;20.374;2023-03-23T08:31:11;20.63;;;15.90;;
60076;SDS011;45950;45.208;20.374;2023-03-23T08:33:38;19.35;;;15.57;;
60076;SDS011;45950;45.208;20.374;2023-03-23T08:36:06;18.00;;;14.75;;
60076;SDS011;45950;45.208;20.374;2023-03-23T08:38:33;17.83;;;14.02;;
60076;SDS011;45950;45.208;20.374;2023-03-23T08:40:59;17.42;;;13.60;;
60076;SDS011;45950;45.208;20.374;2023-03-23T08:43:27;20.75;;;15.55;;
60076;SDS011;45950;45.208;20.374;2023-03-23T08:45:54;19.30;;;14.45;;
60076;SDS011;45950;45.208;20.374;2023-03-23T08:48:22;20.20;;;13.88;;
60076;SDS011;45950;45.208;20.374;2023-03-23T08:50:49;16.73;;;12.65;;
60076;SDS011;45950;45.208;20.374;2023-03-23T08:53:17;18.45;;;13.85;;
60076;SDS011;45950;45.208;20.374;2023-03-23T08:55:43;16.98;;;11.85;;
60076;SDS011;45950;45.208;20.374;2023-03-23T08:58:10;15.93;;;11.52;;
60076;SDS011;45950;45.208;20.374;2023-03-23T09:00:36;15.13;;;12.32;;
60076;SDS011;45950;45.208;20.374;2023-03-23T09:03:03;16.35;;;12.02;;
60076;SDS011;45950;45.208;20.374;2023-03-23T09:08:20;15.55;;;11.93;;
60076;SDS011;45950;45.208;20.374;2023-03-23T09:10:46;15.38;;;11.20;;
60076;SDS011;45950;45.208;20.374;2023-03-23T09:13:24;16.13;;;11.73;;
60076;SDS011;45950;45.208;20.374;2023-03-23T09:15:51;13.32;;;10.98;;
60076;SDS011;45950;45.208;20.374;2023-03-23T09:18:18;14.00;;;11.27;;
60076;SDS011;45950;45.208;20.374;2023-03-23T09:20:46;14.18;;;11.02;;
60076;SDS011;45950;45.208;20.374;2023-03-23T09:23:13;13.10;;;10.65;;
60076;SDS011;45950;45.208;20.374;2023-03-23T09:28:28;13.50;;;11.15;;
60076;SDS011;45950;45.208;20.374;2023-03-23T09:30:56;13.07;;;10.10;;
60076;SDS011;45950;45.208;20.374;2023-03-23T09:33:27;15.57;;;11.27;;
60076;SDS011;45950;45.208;20.374;2023-03-23T09:35:59;14.32;;;11.00;;
60076;SDS011;45950;45.208;20.374;2023-03-23T09:38:25;13.13;;;10.88;;
60076;SDS011;45950;45.208;20.374;2023-03-23T09:40:54;13.77;;;11.40;;
60076;SDS011;45950;45.208;20.374;2023-03-23T09:43:32;17.70;;;10.55;;
60076;SDS011;45950;45.208;20.374;2023-03-23T09:46:06;11.23;;;9.70;;
60076;SDS011;45950;45.208;20.374;2023-03-23T09:48:43;13.57;;;11.43;;
60076;SDS011;45950;45.208;20.374;2023-03-23T09:51:14;13.35;;;11.20;;
60076;SDS011;45950;45.208;20.374;2023-03-23T09:53:45;11.15;;;9.63;;
60076;SDS011;45950;45.208;20.374;2023-03-23T09:56:14;12.32;;;9.90;;
60076;SDS011;45950;45.208;20.374;2023-03-23T09:58:45;11.90;;;9.20;;
60076;SDS011;45950;45.208;20.374;2023-03-23T10:01:15;12.93;;;9.23;;
60076;SDS011;45950;45.208;20.374;2023-03-23T10:03:42;11.10;;;9.27;;
60076;SDS011;45950;45.208;20.374;2023-03-23T10:06:10;9.13;;;8.10;;
60076;SDS011;45950;45.208;20.374;2023-03-23T10:08:38;9.60;;;8.13;;
60076;SDS011;45950;45.208;20.374;2023-03-23T10:11:08;8.63;;;7.15;;
60076;SDS011;45950;45.208;20.374;2023-03-23T10:13:49;10.32;;;8.70;;
60076;SDS011;45950;45.208;20.374;2023-03-23T10:16:19;11.70;;;8.18;;
60076;SDS011;45950;45.208;20.374;2023-03-23T10:18:47;8.65;;;6.88;;
60076;SDS011;45950;45.208;20.374;2023-03-23T10:21:17;7.75;;;6.18;;
60076;SDS011;45950;45.208;20.374;2023-03-23T10:23:47;8.82;;;6.20;;
60076;SDS011;45950;45.208;20.374;2023-03-23T10:26:32;8.63;;;5.70;;
60076;SDS011;45950;45.208;20.374;2023-03-23T10:29:04;8.27;;;6.03;;
60076;SDS011;45950;45.208;20.374;2023-03-23T10:31:35;7.38;;;6.22;;
60076;SDS011;45950;45.208;20.374;2023-03-23T10:34:04;8.35;;;5.00;;
60076;SDS011;45950;45.208;20.374;2023-03-23T10:36:34;7.70;;;5.65;;
60076;SDS011;45950;45.208;20.374;2023-03-23T10:39:03;6.88;;;5.63;;
60076;SDS011;45950;45.208;20.374;2023-03-23T10:41:31;7.40;;;5.70;;
60076;SDS011;45950;45.208;20.374;2023-03-23T10:43:58;8.85;;;6.28;;
60076;SDS011;45950;45.208;20.374;2023-03-23T10:46:29;8.20;;;6.75;;
60076;SDS011;45950;45.208;20.374;2023-03-23T10:48:59;7.40;;;5.50;;
60076;SDS011;45950;45.208;20.374;2023-03-23T10:51:28;9.70;;;5.80;;
60076;SDS011;45950;45.208;20.374;2023-03-23T10:53:56;7.30;;;5.28;;
60076;SDS011;45950;45.208;20.374;2023-03-23T10:59:27;7.30;;;5.45;;
60076;SDS011;45950;45.208;20.374;2023-03-23T11:01:56;8.25;;;5.38;;
60076;SDS011;45950;45.208;20.374;2023-03-23T11:04:24;7.43;;;5.95;;
60076;SDS011;45950;45.208;20.374;2023-03-23T11:07:10;7.90;;;5.65;;
60076;SDS011;45950;45.208;20.374;2023-03-23T11:09:51;6.50;;;5.15;;
60076;SDS011;45950;45.208;20.374;2023-03-23T11:12:18;8.75;;;6.57;;
60076;SDS011;45950;45.208;20.374;2023-03-23T11:14:45;8.20;;;5.65;;
60076;SDS011;45950;45.208;20.374;2023-03-23T11:17:21;5.88;;;5.03;;
60076;SDS011;45950;45.208;20.374;2023-03-23T11:19:48;7.38;;;5.90;;
60076;SDS011;45950;45.208;20.374;2023-03-23T11:22:16;7.30;;;5.72;;
60076;SDS011;45950;45.208;20.374;2023-03-23T11:24:44;6.03;;;5.30;;
60076;SDS011;45950;45.208;20.374;2023-03-23T11:27:11;8.05;;;5.40;;
60076;SDS011;45950;45.208;20.374;2023-03-23T11:29:43;6.60;;;5.80;;
60076;SDS011;45950;45.208;20.374;2023-03-23T11:32:10;7.28;;;5.47;;
60076;SDS011;45950;45.208;20.374;2023-03-23T11:34:41;5.93;;;4.57;;
60076;SDS011;45950;45.208;20.374;2023-03-23T11:37:09;5.80;;;4.80;;
60076;SDS011;45950;45.208;20.374;2023-03-23T11:39:45;6.53;;;5.10;;
60076;SDS011;45950;45.208;20.374;2023-03-23T11:42:13;6.47;;;4.82;;
60076;SDS011;45950;45.208;20.374;2023-03-23T11:44:43;4.97;;;4.47;;
60076;SDS011;45950;45.208;20.374;2023-03-23T11:47:15;5.63;;;5.13;;
60076;SDS011;45950;45.208;20.374;2023-03-23T11:49:45;8.15;;;6.82;;
60076;SDS011;45950;45.208;20.374;2023-03-23T11:52:15;9.50;;;7.50;;
60076;SDS011;45950;45.208;20.374;2023-03-23T11:54:46;7.22;;;6.03;;
60076;SDS011;45950;45.208;20.374;2023-03-23T11:57:14;7.15;;;5.28;;
60076;SDS011;45950;45.208;20.374;2023-03-23T11:59:41;5.82;;;4.80;;
60076;SDS011;45950;45.208;20.374;2023-03-23T12:05:19;5.93;;;4.78;;
60076;SDS011;45950;45.208;20.374;2023-03-23T12:07:50;5.47;;;4.65;;
60076;SDS011;45950;45.208;20.374;2023-03-23T12:10:25;7.75;;;4.90;;
60076;SDS011;45950;45.208;20.374;2023-03-23T12:12:56;8.55;;;6.20;;
60076;SDS011;45950;45.208;20.374;2023-03-23T12:15:26;6.13;;;5.53;;
60076;SDS011;45950;45.208;20.374;2023-03-23T12:17:58;5.68;;;4.88;;
60076;SDS011;45950;45.208;20.374;2023-03-23T12:20:34;10.45;;;6.00;;
60076;SDS011;45950;45.208;20.374;2023-03-23T12:23:06;7.82;;;6.85;;
60076;SDS011;45950;45.208;20.374;2023-03-23T12:25:39;5.50;;;4.78;;
60076;SDS011;45950;45.208;20.374;2023-03-23T12:28:11;11.85;;;8.57;;
60076;SDS011;45950;45.208;20.374;2023-03-23T12:30:43;10.25;;;6.25;;
60076;SDS011;45950;45.208;20.374;2023-03-23T12:33:13;7.32;;;4.63;;
60076;SDS011;45950;45.208;20.374;2023-03-23T12:35:47;10.63;;;6.93;;
60076;SDS011;45950;45.208;20.374;2023-03-23T12:38:36;7.05;;;4.68;;
60076;SDS011;45950;45.208;20.374;2023-03-23T12:41:10;4.93;;;4.43;;
60076;SDS011;45950;45.208;20.374;2023-03-23T12:43:38;9.70;;;7.05;;
60076;SDS011;45950;45.208;20.374;2023-03-23T12:49:10;5.80;;;4.30;;
60076;SDS011;45950;45.208;20.374;2023-03-23T12:51:42;5.65;;;4.68;;
60076;SDS011;45950;45.208;20.374;2023-03-23T12:54:24;8.05;;;6.30;;
60076;SDS011;45950;45.208;20.374;2023-03-23T12:56:56;5.85;;;4.15;;
60076;SDS011;45950;45.208;20.374;2023-03-23T12:59:28;10.15;;;5.32;;
60076;SDS011;45950;45.208;20.374;2023-03-23T13:01:57;7.32;;;5.40;;
60076;SDS011;45950;45.208;20.374;2023-03-23T13:04:25;6.68;;;4.88;;
60076;SDS011;45950;45.208;20.374;2023-03-23T13:06:54;12.77;;;6.72;;
60076;SDS011;45950;45.208;20.374;2023-03-23T13:09:27;5.95;;;5.32;;
60076;SDS011;45950;45.208;20.374;2023-03-23T13:11:55;6.07;;;4.85;;
60076;SDS011;45950;45.208;20.374;2023-03-23T13:14:25;6.57;;;5.43;;
60076;SDS011;45950;45.208;20.374;2023-03-23T13:16:55;6.65;;;5.45;;
60076;SDS011;45950;45.208;20.374;2023-03-23T13:19:24;5.55;;;4.45;;
60076;SDS011;45950;45.208;20.374;2023-03-23T13:21:55;9.48;;;7.20;;
60076;SDS011;45950;45.208;20.374;2023-03-23T13:24:26;9.05;;;6.03;;
60076;SDS011;45950;45.208;20.374;2023-03-23T13:26:54;7.75;;;5.68;;
60076;SDS011;45950;45.208;20.374;2023-03-23T13:29:23;7.07;;;4.80;;
60076;SDS011;45950;45.208;20.374;2023-03-23T13:31:52;5.90;;;4.50;;
60076;SDS011;45950;45.208;20.374;2023-03-23T13:34:30;6.60;;;4.68;;
60076;SDS011;45950;45.208;20.374;2023-03-23T13:36:59;44.05;;;9.52;;
60076;SDS011;45950;45.208;20.374;2023-03-23T13:39:36;6.05;;;5.13;;
60076;SDS011;45950;45.208;20.374;2023-03-23T13:42:05;13.13;;;8.82;;
60076;SDS011;45950;45.208;20.374;2023-03-23T13:44:42;9.90;;;7.22;;
60076;SDS011;45950;45.208;20.374;2023-03-23T13:47:28;6.13;;;5.03;;
60076;SDS011;45950;45.208;20.374;2023-03-23T13:49:57;11.93;;;9.52;;
60076;SDS011;45950;45.208;20.374;2023-03-23T13:52:35;8.80;;;7.90;;
60076;SDS011;45950;45.208;20.374;2023-03-23T13:55:16;7.80;;;6.20;;
60076;SDS011;45950;45.208;20.374;2023-03-23T13:57:52;6.28;;;5.45;;
60076;SDS011;45950;45.208;20.374;2023-03-23T14:00:35;5.90;;;5.30;;
60076;SDS011;45950;45.208;20.374;2023-03-23T14:03:15;6.50;;;5.00;;
60076;SDS011;45950;45.208;20.374;2023-03-23T14:05:42;7.80;;;6.85;;
60076;SDS011;45950;45.208;20.374;2023-03-23T14:08:20;7.40;;;6.15;;
60076;SDS011;45950;45.208;20.374;2023-03-23T14:10:49;7.65;;;5.30;;
60076;SDS011;45950;45.208;20.374;2023-03-23T14:13:18;5.93;;;5.30;;
60076;SDS011;45950;45.208;20.374;2023-03-23T14:15:53;6.88;;;5.80;;
60076;SDS011;45950;45.208;20.374;2023-03-23T14:18:21;6.30;;;5.47;;
60076;SDS011;45950;45.208;20.374;2023-03-23T14:20:48;5.97;;;5.38;;
60076;SDS011;45950;45.208;20.374;2023-03-23T14:23:16;7.88;;;6.80;;
60076;SDS011;45950;45.208;20.374;2023-03-23T14:25:43;9.65;;;7.53;;
60076;SDS011;45950;45.208;20.374;2023-03-23T14:28:17;8.43;;;5.95;;
60076;SDS011;45950;45.208;20.374;2023-03-23T14:30:43;8.20;;;5.82;;
60076;SDS011;45950;45.208;20.374;2023-03-23T14:33:10;6.47;;;5.75;;
60076;SDS011;45950;45.208;20.374;2023-03-23T14:35:40;7.85;;;5.28;;
60076;SDS011;45950;45.208;20.374;2023-03-23T14:38:09;6.07;;;5.45;;
60076;SDS011;45950;45.208;20.374;2023-03-23T14:40:38;7.97;;;6.40;;
60076;SDS011;45950;45.208;20.374;2023-03-23T14:43:05;10.70;;;8.85;;
60076;SDS011;45950;45.208;20.374;2023-03-23T14:45:32;7.95;;;7.15;;
60076;SDS011;45950;45.208;20.374;2023-03-23T14:47:59;7.72;;;6.28;;
60076;SDS011;45950;45.208;20.374;2023-03-23T14:50:27;5.63;;;4.97;;
60076;SDS011;45950;45.208;20.374;2023-03-23T14:52:59;6.30;;;5.45;;
60076;SDS011;45950;45.208;20.374;2023-03-23T14:55:36;8.70;;;7.18;;
60076;SDS011;45950;45.208;20.374;2023-03-23T14:58:08;6.88;;;5.20;;
60076;SDS011;45950;45.208;20.374;2023-03-23T15:00:38;10.43;;;6.28;;
60076;SDS011;45950;45.208;20.374;2023-03-23T15:03:06;9.75;;;6.35;;
60076;SDS011;45950;45.208;20.374;2023-03-23T15:05:37;7.47;;;5.75;;
60076;SDS011;45950;45.208;20.374;2023-03-23T15:08:06;14.52;;;10.05;;
60076;SDS011;45950;45.208;20.374;2023-03-23T15:10:34;7.15;;;5.30;;
60076;SDS011;45950;45.208;20.374;2023-03-23T15:13:00;6.43;;;5.55;;
60076;SDS011;45950;45.208;20.374;2023-03-23T15:15:29;7.93;;;5.45;;
60076;SDS011;45950;45.208;20.374;2023-03-23T15:18:14;5.70;;;5.10;;
60076;SDS011;45950;45.208;20.374;2023-03-23T15:20:46;10.38;;;6.72;;
60076;SDS011;45950;45.208;20.374;2023-03-23T15:23:30;10.48;;;7.85;;
60076;SDS011;45950;45.208;20.374;2023-03-23T15:25:56;9.40;;;6.68;;
60076;SDS011;45950;45.208;20.374;2023-03-23T15:28:28;6.35;;;5.75;;
60076;SDS011;45950;45.208;20.374;2023-03-23T15:31:00;8.38;;;5.72;;
60076;SDS011;45950;45.208;20.374;2023-03-23T15:33:33;8.07;;;5.80;;
60076;SDS011;45950;45.208;20.374;2023-03-23T15:36:04;8.27;;;7.05;;
60076;SDS011;45950;45.208;20.374;2023-03-23T15:38:32;15.20;;;10.63;;
60076;SDS011;45950;45.208;20.374;2023-03-23T15:41:00;34.90;;;20.75;;
60076;SDS011;45950;45.208;20.374;2023-03-23T15:43:27;14.18;;;9.93;;
60076;SDS011;45950;45.208;20.374;2023-03-23T15:45:55;39.58;;;21.38;;
60076;SDS011;45950;45.208;20.374;2023-03-23T15:48:26;19.52;;;10.93;;
60076;SDS011;45950;45.208;20.374;2023-03-23T15:50:53;8.60;;;6.60;;
60076;SDS011;45950;45.208;20.374;2023-03-23T15:53:27;17.92;;;13.30;;
60076;SDS011;45950;45.208;20.374;2023-03-23T15:55:54;10.48;;;8.60;;
60076;SDS011;45950;45.208;20.374;2023-03-23T15:58:20;16.30;;;11.80;;
60076;SDS011;45950;45.208;20.374;2023-03-23T16:00:47;10.43;;;8.52;;
60076;SDS011;45950;45.208;20.374;2023-03-23T16:03:17;11.05;;;8.25;;
60076;SDS011;45950;45.208;20.374;2023-03-23T16:05:46;11.48;;;9.43;;
60076;SDS011;45950;45.208;20.374;2023-03-23T16:08:12;8.20;;;6.93;;
60076;SDS011;45950;45.208;20.374;2023-03-23T16:10:40;6.63;;;5.50;;
60076;SDS011;45950;45.208;20.374;2023-03-23T16:13:07;9.80;;;6.60;;
60076;SDS011;45950;45.208;20.374;2023-03-23T16:15:33;9.80;;;7.10;;
60076;SDS011;45950;45.208;20.374;2023-03-23T16:18:00;7.78;;;6.97;;
60076;SDS011;45950;45.208;20.374;2023-03-23T16:20:27;7.35;;;6.43;;
60076;SDS011;45950;45.208;20.374;2023-03-23T16:22:55;7.68;;;6.43;;
60076;SDS011;45950;45.208;20.374;2023-03-23T16:25:21;6.53;;;5.70;;
60076;SDS011;45950;45.208;20.374;2023-03-23T16:27:48;7.80;;;6.40;;
60076;SDS011;45950;45.208;20.374;2023-03-23T16:30:16;9.70;;;5.35;;
60076;SDS011;45950;45.208;20.374;2023-03-23T16:32:43;8.57;;;6.28;;
60076;SDS011;45950;45.208;20.374;2023-03-23T16:35:10;6.88;;;6.18;;